Accueil
METAR-TAF:

METAR-TAF

Aéroports :

Harare, Zimbabwe

Aéroport international d'Harare

latitude: 17-55S, longitude: 031-08E, altitude: 1479 m

Observation

Le bulletin a été fait il y a 47 minutes, à 08:00 UTC
Vent 5 kt de est, variant entre nord/nord-est et sud/sud-est
Température 20°C
Humidité 30%
Pression 1029 hPa
Visibilité 10 km ou plus
pas de nuages en-dessous de 1500 mètres et pas de cumulonimbus.

METAR: FVHA 240800Z 10005KT 030V150 CAVOK 20/02 Q1029 NOSIG

Heure: 10:47 (08:47 UTC)

Prévision

Le bulletin a été fait il y a 4 heures et 47 minutes, à 04:00 UTC
Prévision valable du 24 à 06 UTC au 25 à 12 UTC
Vent 6 kt de est
Visibilité 10 km ou plus
pas de nuages en-dessous de 1500 mètres et pas de cumulonimbus.

TAF: FVHA 240400Z 2406/2512 10006KT CAVOK

Observations et prévisions météorologiques de plus de 4000 aéroports (messages METAR et TAF).

Les stations disponibles sont représentées par des disques jaunes et rouges sur la carte.

Passer la souris dessus pour voir le nom de la station.

Cliquer dessus pour voir les observations et prévisions météorologiques.

Pour changer de carte: cliquez sur les boutons verts avec une croix noire pour zoomer, sur le bouton vert avec un tiret pour effectuer un zoom arrière, ou sur les flèches vertes pour les cartes adjacentes.


METAR-TAF: